Time;durP1;ratioP1;P1;durP2;ratioP2;P2;SDS_P1;SDS_P2;PMS_P1;PMS_P2;Temp;Humidity;BMP_temperature;BMP_pressure;BME280_temperature;BME280_humidity;BME280_pressure;Samples;Min_cycle;Max_cycle;Signal;HPM_P1;HPM_P2
2021/01/28 00:01:23;;;;;;;19.80;10.67;;;;;;;0.11;95.21;100017.16;10415751;28;20767;-57
2021/01/28 00:06:23;;;;;;;19.97;10.13;;;;;;;0.11;95.23;100011.03;10424097;28;20184;-58
2021/01/28 00:11:23;;;;;;;22.43;11.03;;;;;;;0.11;95.39;100000.56;10428133;28;20212;-60
2021/01/28 00:16:24;;;;;;;20.73;8.90;;;;;;;0.09;94.49;100000.59;10437738;28;20306;-59
2021/01/28 00:21:25;;;;;;;21.47;10.60;;;;;;;0.12;94.89;100007.53;10429156;28;20217;-60
2021/01/28 00:26:25;;;;;;;29.47;12.97;;;;;;;0.13;95.40;100003.97;10438231;28;20737;-60
2021/01/28 00:31:26;;;;;;;26.27;13.17;;;;;;;0.17;94.50;99996.00;10424954;28;20195;-60
2021/01/28 00:36:26;;;;;;;27.80;13.43;;;;;;;0.22;94.12;99999.34;10421220;28;20184;-60
2021/01/28 00:41:27;;;;;;;26.97;14.80;;;;;;;0.20;95.00;99995.91;10442386;28;20180;-61
2021/01/28 00:46:27;;;;;;;25.27;12.20;;;;;;;0.17;95.11;99985.50;10435169;28;20242;-60
2021/01/28 00:51:27;;;;;;;27.27;12.93;;;;;;;0.14;95.83;99980.31;10412030;28;20254;-60
2021/01/28 00:56:28;;;;;;;37.90;14.60;;;;;;;0.12;96.82;99987.38;10412861;28;20176;-60
2021/01/28 01:01:28;;;;;;;27.07;12.90;;;;;;;0.07;96.52;99973.53;10412613;28;20184;-58
2021/01/28 01:06:29;;;;;;;25.40;12.33;;;;;;;0.09;97.34;99966.50;10411668;28;20168;-61
2021/01/28 01:11:29;;;;;;;24.30;11.40;;;;;;;0.07;97.85;99957.78;10412262;28;20246;-60
2021/01/28 01:16:30;;;;;;;25.33;10.80;;;;;;;0.04;97.85;99962.25;10412438;28;20223;-62
2021/01/28 01:21:30;;;;;;;22.97;11.17;;;;;;;0.04;97.64;99973.59;10411434;28;20269;-60
2021/01/28 01:26:30;;;;;;;27.10;13.57;;;;;;;0.06;97.12;99966.56;10412671;28;20185;-57
2021/01/28 01:31:31;;;;;;;23.53;11.07;;;;;;;0.09;96.95;99949.88;10453138;28;20321;-57
2021/01/28 01:36:31;;;;;;;22.80;8.80;;;;;;;0.06;97.42;99949.97;10436443;28;20193;-57
2021/01/28 01:41:32;;;;;;;17.97;10.20;;;;;;;0.10;96.82;99949.84;10414028;28;20192;-59
2021/01/28 01:46:32;;;;;;;21.27;10.73;;;;;;;0.15;96.66;99947.09;10418801;28;20184;-57
2021/01/28 01:51:41;;;;;;;21.23;9.17;;;;;;;0.19;96.75;99935.59;10434398;28;20703;-57
2021/01/28 01:56:45;;;;;;;16.80;8.20;;;;;;;0.17;96.45;99933.03;10442289;28;20179;-58
2021/01/28 02:01:50;;;;;;;18.53;9.03;;;;;;;0.09;96.41;99924.53;10441081;28;20181;-58
2021/01/28 02:07:06;;;;;;;19.10;8.77;;;;;;;-0.03;97.05;99909.97;10447299;28;20231;-58
2021/01/28 02:12:06;;;;;;;17.23;8.70;;;;;;;0.04;97.26;99928.16;10418423;28;20191;-58
2021/01/28 02:17:11;;;;;;;17.23;8.17;;;;;;;0.04;96.72;99913.28;10414207;28;20191;-59
2021/01/28 02:22:12;;;;;;;19.60;9.07;;;;;;;0.02;96.46;99907.22;10421205;28;20383;-58
2021/01/28 02:27:13;;;;;;;17.63;8.80;;;;;;;-0.02;97.03;99906.47;10416963;28;20230;-58
2021/01/28 02:32:14;;;;;;;18.60;8.93;;;;;;;0.02;96.30;99907.22;10416082;28;20202;-58
2021/01/28 02:37:21;;;;;;;20.73;9.40;;;;;;;0.03;96.26;99898.44;10418338;28;20670;-59
2021/01/28 02:42:27;;;;;;;17.60;9.33;;;;;;;-0.01;96.92;99891.59;10433955;28;20187;-59
2021/01/28 02:47:28;;;;;;;17.63;8.57;;;;;;;-0.06;95.94;99888.22;10458200;28;20246;-59
2021/01/28 02:52:30;;;;;;;21.30;9.13;;;;;;;-0.14;96.60;99885.81;10458717;28;20190;-58
2021/01/28 02:57:30;;;;;;;16.93;8.20;;;;;;;-0.16;96.62;99878.91;10417099;28;20183;-57
2021/01/28 03:02:30;;;;;;;17.10;8.27;;;;;;;-0.20;95.75;99882.50;10423213;28;20191;-62
2021/01/28 03:07:31;;;;;;;17.17;9.53;;;;;;;-0.24;96.34;99878.25;10420512;28;20267;-63
2021/01/28 03:12:32;;;;;;;22.50;9.37;;;;;;;-0.32;95.98;99874.97;10452138;28;20175;-63
2021/01/28 03:17:32;;;;;;;16.67;9.50;;;;;;;-0.42;95.92;99871.75;10457715;28;20195;-62
2021/01/28 03:22:33;;;;;;;25.73;10.97;;;;;;;-0.57;96.16;99875.63;10457030;28;20180;-62
2021/01/28 03:27:33;;;;;;;29.97;10.97;;;;;;;-0.73;96.07;99876.94;10456469;28;20214;-62
2021/01/28 03:32:34;;;;;;;24.53;10.83;;;;;;;-0.83;96.99;99873.66;10437876;28;20208;-61
2021/01/28 03:37:34;;;;;;;19.20;10.20;;;;;;;-0.89;96.83;99857.25;10415125;28;20227;-61
2021/01/28 03:42:35;;;;;;;22.50;10.87;;;;;;;-0.94;97.00;99864.34;10415522;28;20184;-63
2021/01/28 03:47:35;;;;;;;25.13;11.43;;;;;;;-1.00;97.74;99859.28;10425882;28;20227;-63
2021/01/28 03:52:36;;;;;;;22.47;11.50;;;;;;;-1.00;97.70;99860.16;10415044;28;20189;-62
2021/01/28 03:57:36;;;;;;;22.80;12.37;;;;;;;-0.93;97.87;99859.09;10414145;28;20294;-63
2021/01/28 04:02:36;;;;;;;19.70;10.57;;;;;;;-0.86;97.32;99857.19;10413928;28;20180;-63
2021/01/28 04:07:37;;;;;;;15.60;10.13;;;;;;;-0.79;97.19;99850.88;10420557;28;20223;-63
2021/01/28 04:12:38;;;;;;;18.23;9.70;;;;;;;-0.72;97.82;99848.03;10454764;28;20186;-62
2021/01/28 04:17:39;;;;;;;20.10;9.20;;;;;;;-0.64;97.39;99831.28;10455238;28;20594;-63
2021/01/28 04:22:39;;;;;;;18.33;8.57;;;;;;;-0.57;96.68;99831.06;10455118;28;20210;-63
2021/01/28 04:27:40;;;;;;;18.67;8.87;;;;;;;-0.50;96.50;99822.16;10454208;28;20239;-62
2021/01/28 04:32:41;;;;;;;29.07;13.53;;;;;;;-0.47;96.92;99823.81;10454175;28;20160;-63
2021/01/28 04:37:41;;;;;;;18.60;9.97;;;;;;;-0.61;96.26;99784.06;10453813;28;20275;-63
2021/01/28 04:42:47;;;;;;;16.87;8.17;;;;;;;-0.37;96.58;99812.19;10453915;28;20211;-62
2021/01/28 04:48:03;;;;;;;15.03;8.40;;;;;;;-0.32;96.09;99802.44;10453556;28;20666;-61
2021/01/28 04:53:34;;;;;;;12.77;7.10;;;;;;;-0.26;95.56;99788.31;10454040;28;20213;-59
2021/01/28 04:58:35;;;;;;;11.07;6.60;;;;;;;-0.22;94.38;99775.03;10440530;28;20260;-61
2021/01/28 05:03:46;;;;;;;8.77;6.43;;;;;;;-0.17;93.26;99764.44;10453025;28;20658;-58
2021/01/28 05:08:47;;;;;;;9.70;5.23;;;;;;;-0.20;93.12;99760.13;10453140;28;20286;-61
2021/01/28 05:13:47;;;;;;;13.47;6.43;;;;;;;-0.32;92.62;99749.13;10453414;28;20203;-58
2021/01/28 05:19:05;;;;;;;7.33;4.07;;;;;;;-0.46;90.50;99745.16;10453584;28;20171;-58
2021/01/28 05:24:23;;;;;;;6.57;4.60;;;;;;;-0.50;91.10;99732.19;10454893;28;20178;-58
2021/01/28 05:29:29;;;;;;;11.70;5.17;;;;;;;-0.52;91.03;99727.00;10460178;28;20583;-59
2021/01/28 05:34:32;;;;;;;11.03;5.27;;;;;;;-0.53;90.83;99722.66;10432755;28;20594;-58
2021/01/28 05:39:38;;;;;;;9.63;4.93;;;;;;;-0.48;90.26;99722.50;10437800;28;20195;-60
2021/01/28 05:44:40;;;;;;;15.87;6.60;;;;;;;-0.43;90.17;99718.88;10447783;28;20211;-60
2021/01/28 05:49:42;;;;;;;7.93;5.33;;;;;;;-0.38;89.71;99713.50;10437387;28;20220;-59
2021/01/28 05:54:43;;;;;;;13.70;5.23;;;;;;;-0.38;88.99;99709.13;10437548;28;20284;-61
2021/01/28 05:59:53;;;;;;;8.67;5.60;;;;;;;-0.38;89.16;99703.00;10436062;28;20201;-60
2021/01/28 06:05:15;;;;;;;12.27;6.23;;;;;;;-0.47;87.96;99704.13;10437134;28;20218;-61
2021/01/28 06:10:16;;;;;;;9.03;5.97;;;;;;;-0.64;87.98;99695.91;10435077;28;20266;-62
2021/01/28 06:15:54;;;;;;;7.83;4.97;;;;;;;-0.77;87.80;99707.63;10434836;28;20192;-62
2021/01/28 06:21:31;;;;;;;8.57;5.10;;;;;;;-0.89;88.40;99694.88;10435970;28;20199;-60
2021/01/28 06:26:38;;;;;;;11.70;5.77;;;;;;;-1.04;88.27;99690.06;10403100;28;20264;-61
2021/01/28 06:32:03;;;;;;;10.43;5.30;;;;;;;-1.21;88.84;99683.50;10408617;28;20223;-61
2021/01/28 06:37:47;;;;;;;6.53;4.53;;;;;;;-1.33;88.53;99676.03;10407655;28;20192;-57
2021/01/28 06:43:01;;;;;;;9.07;5.70;;;;;;;-1.35;90.02;99674.34;10401921;28;20247;-62
2021/01/28 06:48:13;;;;;;;11.80;5.33;;;;;;;-1.29;89.46;99659.31;10398690;28;20215;-61
2021/01/28 06:53:23;;;;;;;14.60;7.37;;;;;;;-1.17;89.59;99643.28;10401410;28;20695;-63
2021/01/28 06:58:54;;;;;;;13.70;7.30;;;;;;;-1.08;88.99;99637.78;10408743;28;20185;-59
2021/01/28 07:04:09;;;;;;;11.73;6.63;;;;;;;-0.97;88.45;99629.66;10402197;28;20203;-58
2021/01/28 07:09:25;;;;;;;17.97;7.83;;;;;;;-0.89;87.20;99616.31;10413165;28;20250;-63
2021/01/28 07:14:26;;;;;;;19.20;5.87;;;;;;;-0.93;86.85;99609.44;10423928;28;20188;-62
2021/01/28 07:19:29;;;;;;;13.37;6.70;;;;;;;-0.91;86.85;99608.50;10427358;28;20940;-57
2021/01/28 07:24:35;;;;;;;9.60;5.50;;;;;;;-0.88;86.25;99592.72;10420082;28;20722;-57
2021/01/28 07:29:44;;;;;;;10.37;5.77;;;;;;;-0.71;85.64;99579.09;10412134;28;20222;-58
2021/01/28 07:35:23;;;;;;;10.00;5.10;;;;;;;-0.54;85.31;99587.31;10403847;28;20195;-57
2021/01/28 07:40:57;;;;;;;10.10;6.03;;;;;;;-0.34;84.62;99575.31;10404502;28;20283;-59
2021/01/28 07:46:28;;;;;;;9.00;5.07;;;;;;;-0.16;82.78;99575.59;10407042;28;20767;-62
2021/01/28 07:51:34;;;;;;;9.27;5.77;;;;;;;0.02;82.32;99566.25;10402952;28;20212;-59
2021/01/28 07:56:35;;;;;;;10.63;5.83;;;;;;;0.18;82.33;99561.34;10405874;28;20192;-59
2021/01/28 08:01:41;;;;;;;7.07;5.37;;;;;;;0.31;80.84;99546.91;10405150;28;21013;-60
2021/01/28 08:06:41;;;;;;;11.00;5.40;;;;;;;0.47;80.80;99537.59;10404757;28;20228;-59
2021/01/28 08:11:49;;;;;;;6.57;4.73;;;;;;;0.68;79.18;99546.47;10401186;28;20215;-59
2021/01/28 08:16:52;;;;;;;11.65;6.20;;;;;;;1.00;77.66;99547.88;10404101;28;20428;-61
2021/01/28 08:22:10;;;;;;;9.32;5.20;;;;;;;1.40;76.39;99552.47;10400276;28;20973;-59
2021/01/28 08:27:19;;;;;;;6.73;4.60;;;;;;;1.73;74.22;99553.75;10408131;28;20385;-60
2021/01/28 08:32:26;;;;;;;7.27;4.57;;;;;;;1.86;72.64;99542.72;10383542;28;20725;-59
2021/01/28 08:37:41;;;;;;;11.43;5.13;;;;;;;1.85;73.11;99546.25;10403724;28;20238;-59
2021/01/28 08:42:43;;;;;;;7.03;4.43;;;;;;;1.69;71.75;99528.47;10391582;28;20723;-59
2021/01/28 08:47:57;;;;;;;6.73;4.43;;;;;;;1.78;71.79;99543.91;10381809;28;20230;-58
2021/01/28 08:53:06;;;;;;;6.73;4.80;;;;;;;1.84;71.87;99545.41;10367097;28;20198;-58
2021/01/28 08:58:28;;;;;;;7.33;4.60;;;;;;;1.99;71.49;99539.53;10373933;28;21613;-60
2021/01/28 09:03:33;;;;;;;9.67;4.63;;;;;;;2.06;71.23;99526.94;10366695;28;20742;-58
2021/01/28 09:08:38;;;;;;;9.07;4.63;;;;;;;2.14;70.00;99519.59;10366924;28;20236;-60
2021/01/28 09:13:40;;;;;;;13.57;5.07;;;;;;;2.25;70.67;99505.97;10366572;28;21106;-58
2021/01/28 09:18:49;;;;;;;9.13;4.70;;;;;;;2.26;70.04;99498.03;10374265;28;20196;-57
2021/01/28 09:24:04;;;;;;;10.57;5.90;;;;;;;2.32;70.51;99481.09;10369480;28;20192;-58
2021/01/28 09:29:09;;;;;;;11.45;6.43;;;;;;;2.48;69.55;99469.81;10369430;28;21201;-58
2021/01/28 09:34:31;;;;;;;8.57;4.83;;;;;;;2.67;68.47;99461.94;10368768;28;20680;-58
2021/01/28 09:39:39;;;;;;;8.70;5.70;;;;;;;2.72;67.60;99443.28;10367295;28;20246;-57
2021/01/28 09:44:47;;;;;;;12.57;6.43;;;;;;;2.80;66.76;99451.69;10367935;28;20722;-58
2021/01/28 09:49:54;;;;;;;12.80;5.20;;;;;;;2.74;66.92;99426.50;10375122;28;20222;-58
2021/01/28 09:54:57;;;;;;;11.20;5.30;;;;;;;2.84;66.18;99430.41;10356738;28;20184;-58
2021/01/28 09:59:58;;;;;;;8.97;5.40;;;;;;;2.84;66.08;99411.97;10358454;28;20281;-60
2021/01/28 10:05:00;;;;;;;10.40;5.20;;;;;;;2.83;65.51;99404.97;10357961;28;21373;-57
2021/01/28 10:10:02;;;;;;;10.37;5.60;;;;;;;2.82;65.88;99394.50;10407215;28;20231;-59
2021/01/28 10:15:07;;;;;;;14.53;6.73;;;;;;;2.86;65.50;99382.91;10425869;28;20185;-58
2021/01/28 10:20:08;;;;;;;10.97;6.13;;;;;;;2.90;65.01;99380.03;10426147;28;20183;-57
2021/01/28 10:25:11;;;;;;;11.93;6.17;;;;;;;2.94;65.16;99375.47;10425533;28;20180;-57
2021/01/28 10:30:15;;;;;;;12.30;5.77;;;;;;;2.94;65.51;99357.03;10425536;28;20617;-57
2021/01/28 10:35:21;;;;;;;10.73;6.07;;;;;;;2.95;65.39;99345.56;10425932;28;20198;-57
2021/01/28 10:40:23;;;;;;;8.60;6.20;;;;;;;2.96;65.33;99342.00;10424907;28;20871;-57
2021/01/28 10:45:32;;;;;;;14.70;6.90;;;;;;;2.91;64.83;99317.66;10425775;28;20184;-57
2021/01/28 10:50:34;;;;;;;13.33;6.50;;;;;;;2.86;64.33;99303.88;10423303;28;20223;-57
2021/01/28 10:55:35;;;;;;;12.60;6.33;;;;;;;2.79;64.54;99291.91;10424431;28;20199;-57
2021/01/28 11:00:36;;;;;;;11.67;6.67;;;;;;;2.67;64.33;99266.16;10422907;28;20176;-58
2021/01/28 11:05:37;;;;;;;9.97;5.80;;;;;;;2.77;64.46;99276.22;10427432;28;20184;-57
2021/01/28 11:10:38;;;;;;;10.07;5.60;;;;;;;2.86;65.07;99282.78;10421528;28;20786;-58
2021/01/28 11:15:38;;;;;;;9.97;5.90;;;;;;;2.70;64.27;99223.88;10426340;28;20274;-58
2021/01/28 11:20:39;;;;;;;10.23;6.00;;;;;;;2.99;64.08;99254.06;10421122;28;20727;-57
2021/01/28 11:25:39;;;;;;;13.90;6.67;;;;;;;3.02;63.98;99236.28;10421498;28;20196;-57
2021/01/28 11:30:40;;;;;;;8.47;5.83;;;;;;;3.05;63.84;99225.59;10417858;28;20747;-56
2021/01/28 11:35:40;;;;;;;12.00;6.57;;;;;;;2.92;64.50;99219.25;10421497;28;20224;-57
2021/01/28 11:40:41;;;;;;;13.17;5.70;;;;;;;2.90;64.92;99194.75;10420773;28;20199;-56
2021/01/28 11:45:41;;;;;;;15.83;6.63;;;;;;;2.74;66.32;99175.41;10424872;28;20538;-56
2021/01/28 11:50:42;;;;;;;11.90;6.47;;;;;;;2.74;66.91;99178.03;10420618;28;20686;-57
2021/01/28 11:55:42;;;;;;;12.80;7.10;;;;;;;2.59;67.94;99169.13;10425132;28;20616;-56
2021/01/28 12:00:42;;;;;;;11.93;7.07;;;;;;;2.44;69.18;99160.19;10419910;28;20198;-56
2021/01/28 12:05:43;;;;;;;11.77;7.37;;;;;;;2.38;69.90;99139.47;10423752;28;20223;-55
2021/01/28 12:10:45;;;;;;;14.90;6.93;;;;;;;2.30;70.73;99109.16;10419174;28;20236;-56
2021/01/28 12:15:45;;;;;;;12.53;7.17;;;;;;;2.46;71.16;99108.31;10422991;28;20258;-56
2021/01/28 12:20:46;;;;;;;12.37;7.20;;;;;;;2.57;71.27;99093.75;10417425;28;20698;-56
2021/01/28 12:25:46;;;;;;;11.00;6.80;;;;;;;2.69;70.69;99101.03;10423339;28;20184;-55
2021/01/28 12:30:47;;;;;;;12.30;6.53;;;;;;;2.60;70.95;99090.97;10418961;28;20221;-56
2021/01/28 12:35:48;;;;;;;16.53;8.17;;;;;;;2.38;71.65;99097.34;10421882;28;20187;-56
2021/01/28 12:40:48;;;;;;;18.87;7.50;;;;;;;2.26;73.00;99105.84;10418285;28;20306;-56
2021/01/28 12:45:49;;;;;;;15.03;7.83;;;;;;;2.17;73.69;99085.28;10422443;28;20188;-56
2021/01/28 12:50:49;;;;;;;16.97;7.93;;;;;;;2.03;74.63;99082.47;10418407;28;20268;-56
2021/01/28 12:55:50;;;;;;;16.07;8.80;;;;;;;1.84;76.83;99082.50;10422859;28;20198;-56
2021/01/28 13:00:50;;;;;;;16.97;10.13;;;;;;;1.67;77.14;99078.06;10417936;28;20215;-55
2021/01/28 13:05:50;;;;;;;18.40;10.27;;;;;;;1.62;77.77;99069.53;10422346;28;20234;-56
2021/01/28 13:10:51;;;;;;;21.43;9.87;;;;;;;1.58;79.22;99046.09;10417323;28;20262;-56
2021/01/28 13:15:52;;;;;;;19.80;10.57;;;;;;;1.60;79.72;99044.25;10421370;28;20195;-55
2021/01/28 13:20:53;;;;;;;23.77;10.50;;;;;;;1.58;79.95;99048.72;10417958;28;20214;-56
2021/01/28 13:25:53;;;;;;;20.83;11.60;;;;;;;1.57;80.54;99031.28;10420377;28;20199;-55
2021/01/28 13:30:54;;;;;;;20.30;12.77;;;;;;;1.56;81.56;99037.44;10416026;28;20698;-56
2021/01/28 13:35:54;;;;;;;20.77;11.20;;;;;;;1.50;81.60;99022.81;10422347;28;20846;-56
2021/01/28 13:40:55;;;;;;;21.20;11.80;;;;;;;1.53;82.32;99032.34;10399961;28;20186;-55
2021/01/28 13:45:56;;;;;;;20.77;11.43;;;;;;;1.51;82.50;99024.53;10423855;28;20190;-55
2021/01/28 13:50:56;;;;;;;25.40;11.23;;;;;;;1.41;84.89;99028.53;10425165;28;20839;-56
2021/01/28 13:55:57;;;;;;;24.33;12.37;;;;;;;1.30;85.75;99025.56;10428067;28;20682;-56
2021/01/28 14:00:57;;;;;;;22.63;11.57;;;;;;;1.21;86.14;99015.47;10422405;28;20195;-57
2021/01/28 14:05:58;;;;;;;25.13;11.80;;;;;;;1.17;87.36;99004.25;10427708;28;20190;-56
2021/01/28 14:10:58;;;;;;;21.43;11.73;;;;;;;1.15;88.14;98979.81;10424017;28;20239;-56
2021/01/28 14:15:59;;;;;;;25.73;13.77;;;;;;;1.14;87.81;98993.03;10429798;28;20206;-55
2021/01/28 14:20:59;;;;;;;26.03;13.63;;;;;;;1.12;88.50;98989.63;10426221;28;20184;-56
2021/01/28 14:25:59;;;;;;;31.23;14.97;;;;;;;1.09;88.30;98970.44;10428368;28;20176;-56
2021/01/28 14:31:00;;;;;;;24.33;13.27;;;;;;;1.08;88.99;98967.94;10427036;28;20219;-57
2021/01/28 14:36:00;;;;;;;27.37;14.67;;;;;;;1.08;90.16;98963.53;10429923;28;20738;-56
2021/01/28 14:41:01;;;;;;;25.73;14.40;;;;;;;1.01;90.92;98956.84;10426448;28;20180;-55
2021/01/28 14:46:01;;;;;;;26.40;15.30;;;;;;;1.01;91.11;98955.97;10430155;28;20694;-55
2021/01/28 14:51:03;;;;;;;30.27;16.53;;;;;;;0.99;91.70;98942.91;10425844;28;20207;-54
2021/01/28 14:56:05;;;;;;;32.57;16.07;;;;;;;0.94;92.64;98939.69;10428251;28;20212;-54
2021/01/28 15:01:06;;;;;;;28.30;14.67;;;;;;;0.91;93.24;98925.84;10424444;28;20697;-54
2021/01/28 15:06:08;;;;;;;29.37;15.83;;;;;;;0.87;94.46;98919.88;10427360;28;20171;-56
2021/01/28 15:11:08;;;;;;;31.70;15.20;;;;;;;0.84;94.88;98912.16;10424643;28;20231;-56
2021/01/28 15:16:09;;;;;;;35.83;16.63;;;;;;;0.81;94.46;98904.41;10428577;28;20176;-55
2021/01/28 15:21:09;;;;;;;28.70;16.90;;;;;;;0.82;95.04;98916.63;10424886;28;20882;-55
2021/01/28 15:26:10;;;;;;;33.30;17.80;;;;;;;0.83;94.63;98915.72;10428674;28;20294;-56
2021/01/28 15:31:11;;;;;;;34.47;18.70;;;;;;;0.83;95.34;98913.09;10424252;28;20330;-55
2021/01/28 15:36:12;;;;;;;39.60;19.27;;;;;;;0.79;95.90;98908.88;10426034;28;20199;-55
2021/01/28 15:41:12;;;;;;;33.97;18.77;;;;;;;0.77;96.62;98905.47;10424788;28;20974;-55
2021/01/28 15:46:13;;;;;;;37.10;19.43;;;;;;;0.72;96.57;98886.50;10426998;28;20302;-55
2021/01/28 15:51:14;;;;;;;34.47;17.50;;;;;;;0.68;98.12;98879.66;10423913;28;20220;-56
2021/01/28 15:56:14;;;;;;;32.67;18.27;;;;;;;0.63;98.54;98876.41;10427201;28;20644;-55
2021/01/28 16:01:15;;;;;;;36.60;19.73;;;;;;;0.62;97.88;98859.78;10422753;28;20295;-55
2021/01/28 16:06:15;;;;;;;42.27;20.63;;;;;;;0.60;99.13;98866.06;10426593;28;20187;-55
2021/01/28 16:11:16;;;;;;;33.90;19.10;;;;;;;0.58;99.48;98871.38;10419823;28;20689;-55
2021/01/28 16:16:16;;;;;;;41.97;22.07;;;;;;;0.58;99.56;98865.28;10425508;28;21347;-54
2021/01/28 16:21:17;;;;;;;40.80;20.83;;;;;;;0.60;99.18;98855.56;10421196;28;20293;-56
2021/01/28 16:26:17;;;;;;;44.17;22.53;;;;;;;0.60;99.65;98855.56;10440551;28;20215;-54
2021/01/28 16:31:18;;;;;;;45.20;22.57;;;;;;;0.58;99.92;98857.41;10450832;28;20216;-54
2021/01/28 16:36:18;;;;;;;39.37;21.37;;;;;;;0.58;100.00;98858.25;10416639;28;20206;-54
2021/01/28 16:41:19;;;;;;;40.03;21.50;;;;;;;0.62;100.00;98846.66;10408782;28;20263;-54
2021/01/28 16:46:20;;;;;;;37.83;20.40;;;;;;;0.55;100.00;98837.41;10409512;28;20168;-54
2021/01/28 16:51:20;;;;;;;37.57;20.43;;;;;;;0.64;100.00;98836.09;10409797;28;20208;-55
2021/01/28 16:56:21;;;;;;;41.07;23.13;;;;;;;0.62;100.00;98844.06;10481526;28;20179;-53
2021/01/28 17:01:21;;;;;;;39.07;21.73;;;;;;;0.66;100.00;98829.00;10486574;28;20210;-54
2021/01/28 17:06:22;;;;;;;41.20;21.23;;;;;;;0.68;100.00;98827.16;10452428;28;20183;-54
2021/01/28 17:11:22;;;;;;;38.03;20.87;;;;;;;0.70;100.00;98831.44;10435115;28;20739;-56
2021/01/28 17:16:23;;;;;;;46.10;22.57;;;;;;;0.73;100.00;98830.41;10451454;28;20179;-55
2021/01/28 17:21:23;;;;;;;70.03;28.63;;;;;;;0.72;100.00;98834.00;10451522;28;20237;-55
2021/01/28 17:26:24;;;;;;;44.90;22.97;;;;;;;0.72;100.00;98828.75;10453093;28;20186;-58
2021/01/28 17:31:25;;;;;;;48.07;24.50;;;;;;;0.71;100.00;98833.13;10452260;28;20669;-58
2021/01/28 17:36:25;;;;;;;38.07;16.50;;;;;;;0.69;100.00;98834.13;10451920;28;20190;-57
2021/01/28 17:41:26;;;;;;;38.27;19.40;;;;;;;0.69;100.00;98829.72;10452201;28;20182;-58
2021/01/28 17:46:27;;;;;;;48.07;20.77;;;;;;;0.65;100.00;98822.91;10450929;28;20179;-57
2021/01/28 17:51:28;;;;;;;33.87;17.17;;;;;;;0.62;100.00;98836.19;10451536;28;20250;-57
2021/01/28 17:56:29;;;;;;;42.87;19.73;;;;;;;0.57;100.00;98829.47;10480070;28;20214;-57
2021/01/28 18:01:29;;;;;;;30.10;16.20;;;;;;;0.55;100.00;98821.66;10451825;28;20215;-58
2021/01/28 18:06:30;;;;;;;31.50;16.27;;;;;;;0.52;100.00;98820.94;10397535;28;20744;-57
2021/01/28 18:11:30;;;;;;;32.70;17.63;;;;;;;0.50;100.00;98826.25;10423099;28;20290;-57
2021/01/28 18:16:31;;;;;;;36.63;17.37;;;;;;;0.48;100.00;98820.25;10421342;28;20209;-59
2021/01/28 18:21:33;;;;;;;36.13;17.83;;;;;;;0.47;100.00;98831.69;10423214;28;20214;-57
2021/01/28 18:26:34;;;;;;;26.40;16.00;;;;;;;0.48;100.00;98819.41;10419804;28;20196;-58
2021/01/28 18:31:35;;;;;;;32.07;16.53;;;;;;;0.43;100.00;98813.50;10423933;28;20239;-56
2021/01/28 18:36:35;;;;;;;30.03;14.60;;;;;;;0.32;100.00;98809.63;10408801;28;20189;-56
2021/01/28 18:41:35;;;;;;;31.43;17.10;;;;;;;0.21;100.00;98809.28;10429629;28;20830;-57
2021/01/28 18:46:36;;;;;;;36.63;16.57;;;;;;;0.13;100.00;98806.13;10426657;28;20275;-59
2021/01/28 18:51:37;;;;;;;31.97;15.87;;;;;;;0.05;100.00;98800.41;10429422;28;21228;-58
2021/01/28 18:56:38;;;;;;;25.10;14.30;;;;;;;0.00;100.00;98794.53;10423817;28;20186;-63
2021/01/28 19:01:38;;;;;;;33.23;18.43;;;;;;;0.02;100.00;98813.66;10427697;28;20194;-59
2021/01/28 19:06:39;;;;;;;29.83;16.07;;;;;;;0.07;100.00;98819.56;10423377;28;20219;-58
2021/01/28 19:11:39;;;;;;;33.03;16.80;;;;;;;0.05;100.00;98796.94;10429463;28;20218;-58
2021/01/28 19:16:40;;;;;;;36.60;16.87;;;;;;;0.02;100.00;98800.53;10424505;28;20667;-60
2021/01/28 19:21:40;;;;;;;38.53;18.33;;;;;;;0.05;100.00;98800.41;10428875;28;20187;-58
2021/01/28 19:26:41;;;;;;;28.73;16.30;;;;;;;0.06;100.00;98796.03;10425045;28;20184;-57
2021/01/28 19:31:42;;;;;;;27.47;15.10;;;;;;;0.01;100.00;98796.22;10427728;28;20231;-58
2021/01/28 19:36:42;;;;;;;31.93;16.53;;;;;;;-0.04;100.00;98801.69;10422831;28;20677;-61
2021/01/28 19:41:43;;;;;;;36.03;17.80;;;;;;;-0.10;100.00;98793.25;10432440;28;20242;-56
2021/01/28 19:46:43;;;;;;;29.67;15.63;;;;;;;-0.25;100.00;98800.06;10441124;28;20176;-57
2021/01/28 19:51:44;;;;;;;30.70;15.23;;;;;;;-0.40;100.00;98791.09;10421852;28;20231;-58
2021/01/28 19:56:46;;;;;;;30.80;14.97;;;;;;;-0.51;100.00;98790.72;10433389;28;20255;-57
2021/01/28 20:01:47;;;;;;;32.27;15.90;;;;;;;-0.66;100.00;98786.13;10455210;28;20217;-58
2021/01/28 20:06:47;;;;;;;25.03;11.83;;;;;;;-0.76;100.00;98793.56;10454660;28;20219;-57
2021/01/28 20:11:48;;;;;;;18.53;10.40;;;;;;;-0.85;100.00;98786.09;10453055;28;20222;-58
2021/01/28 20:16:48;;;;;;;21.03;9.70;;;;;;;-0.97;100.00;98780.53;10454901;28;20218;-57
2021/01/28 20:21:49;;;;;;;17.53;9.13;;;;;;;-0.98;100.00;98779.69;10453684;28;20620;-56
2021/01/28 20:26:49;;;;;;;32.67;13.13;;;;;;;-0.96;100.00;98787.44;10447053;28;20180;-56
2021/01/28 20:31:50;;;;;;;50.03;16.37;;;;;;;-0.97;100.00;98775.28;10417794;28;20265;-57
2021/01/28 20:36:50;;;;;;;42.60;13.90;;;;;;;-1.00;100.00;98770.19;10411736;28;20172;-58
2021/01/28 20:41:51;;;;;;;48.60;14.93;;;;;;;-0.98;100.00;98778.81;10436559;28;20186;-57
2021/01/28 20:46:51;;;;;;;23.13;11.07;;;;;;;-1.02;100.00;98777.25;10452763;28;20210;-59
2021/01/28 20:51:52;;;;;;;18.27;9.73;;;;;;;-1.04;100.00;98776.44;10417013;28;20199;-58
2021/01/28 20:56:53;;;;;;;19.23;10.13;;;;;;;-1.10;100.00;98788.91;10420469;28;20288;-57
2021/01/28 21:01:53;;;;;;;17.30;9.53;;;;;;;-1.09;100.00;98787.94;10411950;28;20172;-57
2021/01/28 21:06:54;;;;;;;16.43;8.03;;;;;;;-1.04;100.00;98794.78;10412310;28;20217;-56
2021/01/28 21:11:54;;;;;;;16.00;9.20;;;;;;;-1.00;100.00;98796.34;10411764;28;20566;-56
2021/01/28 21:16:54;;;;;;;20.43;9.90;;;;;;;-1.00;100.00;98802.44;10433669;28;20520;-56
2021/01/28 21:21:55;;;;;;;22.00;12.53;;;;;;;-1.05;100.00;98798.31;10452628;28;20237;-56
2021/01/28 21:26:55;;;;;;;23.27;11.83;;;;;;;-1.14;100.00;98791.69;10453444;28;20172;-56
2021/01/28 21:31:57;;;;;;;18.80;9.77;;;;;;;-1.28;100.00;98792.25;10453187;28;20578;-57
2021/01/28 21:36:58;;;;;;;17.57;9.67;;;;;;;-1.43;100.00;98787.63;10452796;28;20198;-56
2021/01/28 21:41:59;;;;;;;14.07;6.67;;;;;;;-1.63;100.00;98796.28;10450934;28;20180;-56
2021/01/28 21:47:00;;;;;;;12.30;6.63;;;;;;;-1.80;98.56;98793.47;10452526;28;20176;-56
2021/01/28 21:52:01;;;;;;;4.47;2.70;;;;;;;-2.04;97.12;98792.66;10413309;28;20273;-57
2021/01/28 21:57:02;;;;;;;5.97;3.37;;;;;;;-2.28;96.74;98790.94;10411769;28;20173;-57
2021/01/28 22:02:02;;;;;;;9.53;5.87;;;;;;;-2.47;97.73;98784.72;10411406;28;20612;-58
2021/01/28 22:07:03;;;;;;;7.37;4.63;;;;;;;-2.68;98.18;98781.97;10412033;28;20757;-57
2021/01/28 22:12:05;;;;;;;9.23;5.60;;;;;;;-2.85;97.62;98780.84;10418537;28;20301;-57
2021/01/28 22:17:05;;;;;;;11.03;5.03;;;;;;;-3.02;97.78;98773.63;10419205;28;20180;-57
2021/01/28 22:22:06;;;;;;;6.73;4.53;;;;;;;-3.14;97.29;98776.66;10418064;28;20183;-58
2021/01/28 22:27:07;;;;;;;10.97;5.07;;;;;;;-3.26;96.95;98783.94;10418807;28;20198;-57
2021/01/28 22:32:09;;;;;;;10.77;4.93;;;;;;;-3.37;96.24;98772.16;10418198;28;20208;-56
2021/01/28 22:37:09;;;;;;;6.77;4.30;;;;;;;-3.45;96.46;98782.00;10417681;28;20636;-57
2021/01/28 22:42:10;;;;;;;7.50;4.07;;;;;;;-3.68;95.85;98759.28;10422687;28;20249;-57
2021/01/28 22:47:10;;;;;;;9.20;3.70;;;;;;;-3.94;95.51;98767.06;10459201;28;20191;-57
2021/01/28 22:52:11;;;;;;;12.00;4.53;;;;;;;-4.15;95.87;98774.63;10419887;28;20556;-58
2021/01/28 22:57:11;;;;;;;10.33;4.50;;;;;;;-4.29;95.57;98771.59;10416979;28;20637;-58
2021/01/28 23:02:12;;;;;;;6.70;3.37;;;;;;;-4.35;95.46;98761.38;10431166;28;20267;-57
2021/01/28 23:07:12;;;;;;;11.37;4.67;;;;;;;-4.38;95.24;98745.81;10456511;28;20220;-58
2021/01/28 23:12:13;;;;;;;5.07;3.40;;;;;;;-4.38;95.00;98740.63;10457140;28;20207;-56